createdAt,value
2022-09-26T00:01:48.897Z,10.63
2022-09-26T00:04:23.292Z,11.25
2022-09-26T00:06:53.665Z,11.10
2022-09-26T00:09:25.972Z,11.90
2022-09-26T00:11:56.219Z,11.40
2022-09-26T00:14:27.331Z,11.48
2022-09-26T00:16:56.619Z,11.63
2022-09-26T00:19:26.020Z,11.63
2022-09-26T00:21:54.649Z,12.35
2022-09-26T00:24:24.787Z,11.95
2022-09-26T00:26:57.846Z,11.02
2022-09-26T00:29:27.580Z,11.05
2022-09-26T00:31:55.960Z,10.90
2022-09-26T00:34:24.865Z,10.93
2022-09-26T00:36:53.450Z,10.73
2022-09-26T00:39:21.830Z,10.50
2022-09-26T00:41:52.379Z,9.73
2022-09-26T00:44:45.119Z,10.57
2022-09-26T00:47:30.771Z,11.27
2022-09-26T00:50:03.462Z,11.25
2022-09-26T00:52:37.434Z,11.90
2022-09-26T00:55:11.637Z,10.95
2022-09-26T00:57:47.775Z,11.63
2022-09-26T01:00:17.746Z,11.60
2022-09-26T01:02:48.743Z,11.50
2022-09-26T01:05:19.721Z,11.80
2022-09-26T01:07:48.716Z,12.35
2022-09-26T01:10:17.360Z,12.05
2022-09-26T01:12:45.905Z,12.40
2022-09-26T01:15:15.326Z,12.55
2022-09-26T01:17:46.884Z,12.02
2022-09-26T01:20:43.438Z,11.68
2022-09-26T01:23:41.913Z,11.70
2022-09-26T01:27:04.164Z,11.38
2022-09-26T01:30:03.882Z,10.65
2022-09-26T01:32:57.397Z,11.63
2022-09-26T01:35:40.269Z,11.13
2022-09-26T01:38:20.349Z,10.88
2022-09-26T01:41:02.598Z,10.60
2022-09-26T01:43:36.872Z,10.27
2022-09-26T01:46:13.172Z,10.43
2022-09-26T01:48:48.529Z,9.63
2022-09-26T01:51:22.764Z,10.48
2022-09-26T01:53:57.584Z,10.00
2022-09-26T01:56:29.585Z,9.82
2022-09-26T02:01:35.302Z,9.82
2022-09-26T02:04:10.525Z,9.63
2022-09-26T02:06:45.475Z,9.05
2022-09-26T02:09:18.503Z,9.50
2022-09-26T02:11:52.425Z,9.45
2022-09-26T02:14:25.974Z,8.88
2022-09-26T02:17:00.215Z,9.65
2022-09-26T02:19:34.223Z,9.55
2022-09-26T02:22:03.234Z,9.10
2022-09-26T02:24:31.726Z,9.27
2022-09-26T02:27:00.378Z,9.43
2022-09-26T02:29:28.900Z,9.13
2022-09-26T02:32:03.131Z,9.52
2022-09-26T02:34:33.441Z,9.00
2022-09-26T02:37:03.247Z,9.35
2022-09-26T02:39:35.415Z,9.40
2022-09-26T02:42:21.354Z,8.82
2022-09-26T02:45:07.106Z,9.32
2022-09-26T02:47:56.027Z,8.85
2022-09-26T02:51:02.101Z,9.15
2022-09-26T02:53:51.376Z,8.48
2022-09-26T02:56:31.357Z,8.50
2022-09-26T02:59:08.851Z,8.52
2022-09-26T03:01:49.217Z,8.30
2022-09-26T03:04:26.742Z,9.27
2022-09-26T03:07:03.900Z,8.75
2022-09-26T03:09:34.710Z,8.30
2022-09-26T03:12:06.433Z,8.57
2022-09-26T03:14:36.653Z,9.60
2022-09-26T03:17:06.194Z,8.45
2022-09-26T03:19:39.775Z,8.27
2022-09-26T03:22:10.560Z,8.07
2022-09-26T03:24:42.232Z,9.07
2022-09-26T03:27:12.635Z,7.90
2022-09-26T03:29:42.256Z,7.40
2022-09-26T03:32:16.586Z,9.00
2022-09-26T03:34:45.302Z,8.82
2022-09-26T03:37:17.240Z,8.13
2022-09-26T03:39:46.112Z,8.75
2022-09-26T03:42:26.063Z,8.20
2022-09-26T03:44:57.320Z,7.82
2022-09-26T03:47:32.095Z,7.53
2022-09-26T03:50:00.568Z,8.13
2022-09-26T03:52:31.251Z,8.18
2022-09-26T03:55:01.313Z,8.68
2022-09-26T03:57:30.377Z,9.20
2022-09-26T04:00:08.801Z,8.85
2022-09-26T04:02:47.849Z,8.18
2022-09-26T04:05:36.203Z,7.97
2022-09-26T04:08:06.226Z,8.57
2022-09-26T04:10:35.979Z,8.55
2022-09-26T04:13:07.657Z,7.80
2022-09-26T04:15:36.629Z,7.95
2022-09-26T04:18:10.308Z,8.75
2022-09-26T04:20:38.715Z,8.45
2022-09-26T04:23:08.706Z,8.90
2022-09-26T04:25:39.121Z,7.18
2022-09-26T04:28:08.457Z,7.67
2022-09-26T04:30:38.454Z,7.78
2022-09-26T04:33:07.609Z,8.13
2022-09-26T04:35:49.226Z,7.13
2022-09-26T04:38:19.594Z,7.65
2022-09-26T04:40:48.339Z,7.80
2022-09-26T04:43:17.186Z,7.75
2022-09-26T04:45:45.683Z,7.53
2022-09-26T04:48:15.778Z,7.55
2022-09-26T04:51:06.652Z,7.80
2022-09-26T04:53:38.671Z,7.60
2022-09-26T04:56:26.664Z,7.50
2022-09-26T04:58:57.610Z,7.65
2022-09-26T05:01:29.203Z,7.80
2022-09-26T05:03:58.561Z,8.27
2022-09-26T05:06:29.471Z,7.28
2022-09-26T05:08:59.497Z,7.43
2022-09-26T05:11:44.265Z,6.95
2022-09-26T05:14:14.430Z,6.82
2022-09-26T05:16:42.888Z,6.07
2022-09-26T05:19:15.872Z,6.07
2022-09-26T05:21:59.167Z,6.70
2022-09-26T05:24:46.655Z,6.82
2022-09-26T05:27:18.763Z,7.57
2022-09-26T05:29:47.558Z,8.38
2022-09-26T05:32:21.079Z,8.82
2022-09-26T05:34:52.880Z,8.73
2022-09-26T05:37:23.202Z,8.00
2022-09-26T05:40:11.134Z,8.70
2022-09-26T05:42:44.360Z,7.88
2022-09-26T05:45:15.877Z,7.93
2022-09-26T05:47:49.013Z,8.60
2022-09-26T05:50:18.144Z,7.40
2022-09-26T05:52:46.492Z,7.28
2022-09-26T05:55:24.270Z,7.80
2022-09-26T05:58:25.552Z,7.63
2022-09-26T06:01:18.047Z,7.07
2022-09-26T06:03:49.670Z,7.72
2022-09-26T06:06:25.853Z,8.02
2022-09-26T06:09:00.446Z,7.45
2022-09-26T06:11:48.541Z,7.47
2022-09-26T06:14:18.427Z,8.38
2022-09-26T06:16:47.147Z,8.25
2022-09-26T06:19:18.408Z,7.38
2022-09-26T06:21:50.690Z,7.68
2022-09-26T06:24:20.492Z,8.30
2022-09-26T06:26:54.099Z,8.30
2022-09-26T06:29:22.622Z,8.10
2022-09-26T06:31:51.385Z,8.77
2022-09-26T06:34:39.082Z,8.57
2022-09-26T06:37:22.714Z,9.32
2022-09-26T06:39:54.615Z,8.95
2022-09-26T06:42:27.011Z,9.25
2022-09-26T06:45:15.246Z,10.20
2022-09-26T06:48:03.512Z,10.05
2022-09-26T06:50:37.441Z,10.77
2022-09-26T06:53:12.802Z,10.75
2022-09-26T06:55:42.371Z,10.85
2022-09-26T06:58:12.434Z,10.68
2022-09-26T07:00:59.950Z,10.15
2022-09-26T07:03:58.484Z,9.50
2022-09-26T07:06:44.859Z,10.30
2022-09-26T07:09:14.742Z,11.25
2022-09-26T07:12:13.449Z,11.77
2022-09-26T07:14:41.911Z,10.68
2022-09-26T07:17:20.343Z,11.45
2022-09-26T07:20:10.382Z,11.05
2022-09-26T07:23:06.402Z,11.90
2022-09-26T07:25:35.267Z,11.35
2022-09-26T07:28:04.196Z,11.75
2022-09-26T07:30:44.270Z,11.40
2022-09-26T07:33:19.281Z,11.23
2022-09-26T07:35:50.636Z,10.93
2022-09-26T07:38:20.223Z,11.50
2022-09-26T07:40:54.688Z,12.25
2022-09-26T07:43:44.969Z,12.55
2022-09-26T07:46:32.376Z,11.90
2022-09-26T07:49:19.354Z,10.68
2022-09-26T07:51:48.693Z,11.20
2022-09-26T07:54:21.354Z,10.23
2022-09-26T07:56:53.737Z,11.75
2022-09-26T07:59:57.895Z,10.27
2022-09-26T08:02:48.087Z,9.63
2022-09-26T08:05:21.100Z,10.25
2022-09-26T08:07:51.285Z,9.50
2022-09-26T08:10:39.706Z,9.90
2022-09-26T08:13:35.265Z,8.38
2022-09-26T08:16:23.164Z,8.82
2022-09-26T08:18:57.400Z,10.18
2022-09-26T08:21:27.204Z,8.90
2022-09-26T08:24:02.195Z,8.57
2022-09-26T08:26:33.380Z,8.98
2022-09-26T08:29:12.709Z,9.40
2022-09-26T08:34:12.250Z,8.90
2022-09-26T08:36:41.935Z,7.75
2022-09-26T08:39:39.822Z,9.32
2022-09-26T08:42:39.023Z,9.00
2022-09-26T08:45:56.689Z,9.90
2022-09-26T08:49:25.434Z,8.90
2022-09-26T08:51:55.887Z,8.70
2022-09-26T08:54:33.557Z,7.78
2022-09-26T08:57:07.265Z,8.20
2022-09-26T08:59:41.166Z,7.93
2022-09-26T09:02:23.249Z,8.18
2022-09-26T09:05:06.414Z,8.13
2022-09-26T09:07:41.295Z,7.93
2022-09-26T09:10:18.607Z,6.40
2022-09-26T09:13:06.749Z,6.10
2022-09-26T09:16:07.575Z,6.97
2022-09-26T09:18:59.463Z,7.90
2022-09-26T09:22:13.397Z,6.70
2022-09-26T09:25:01.806Z,6.85
2022-09-26T09:27:54.596Z,6.32
2022-09-26T09:30:34.056Z,6.32
2022-09-26T09:33:18.911Z,6.20
2022-09-26T09:36:01.111Z,6.10
2022-09-26T09:38:43.988Z,5.70
2022-09-26T09:41:31.494Z,5.65
2022-09-26T09:44:05.710Z,6.30
2022-09-26T09:46:39.167Z,5.80
2022-09-26T09:49:20.286Z,6.18
2022-09-26T09:52:00.126Z,5.95
2022-09-26T09:54:50.722Z,6.22
2022-09-26T09:57:41.438Z,4.97
2022-09-26T10:00:18.061Z,4.70
2022-09-26T10:03:21.089Z,4.60
2022-09-26T10:05:54.598Z,4.93
2022-09-26T10:08:41.455Z,5.55
2022-09-26T10:14:28.932Z,4.47
2022-09-26T10:17:20.794Z,4.88
2022-09-26T10:19:59.810Z,4.82
2022-09-26T10:22:40.185Z,4.60
2022-09-26T10:25:18.043Z,4.50
2022-09-26T10:27:53.539Z,4.28
2022-09-26T10:30:27.048Z,4.20
2022-09-26T10:33:03.786Z,3.90
2022-09-26T10:36:05.069Z,3.88
2022-09-26T10:38:56.489Z,3.97
2022-09-26T10:41:26.220Z,4.35
2022-09-26T10:44:02.289Z,4.90
2022-09-26T10:46:52.021Z,4.28
2022-09-26T10:49:46.723Z,4.30
2022-09-26T10:52:45.913Z,4.68
2022-09-26T10:55:19.480Z,3.88
2022-09-26T10:57:53.403Z,4.00
2022-09-26T11:00:38.875Z,3.78
2022-09-26T11:03:17.916Z,3.47
2022-09-26T11:06:24.308Z,4.50
2022-09-26T11:08:59.885Z,4.22
2022-09-26T11:11:39.755Z,4.82
2022-09-26T11:14:10.758Z,3.90
2022-09-26T11:16:54.548Z,4.10
2022-09-26T11:19:39.211Z,4.07
2022-09-26T11:22:16.510Z,4.03
2022-09-26T11:24:52.939Z,3.85
2022-09-26T11:27:31.823Z,3.60
2022-09-26T11:30:09.555Z,3.85
2022-09-26T11:32:48.133Z,4.10
2022-09-26T11:35:47.040Z,4.40
2022-09-26T11:38:38.532Z,4.18
2022-09-26T11:41:37.742Z,4.18
2022-09-26T11:44:30.959Z,4.13
2022-09-26T11:47:52.736Z,4.40
2022-09-26T11:50:43.660Z,4.00
2022-09-26T11:53:45.680Z,4.03
2022-09-26T11:56:49.413Z,4.18
2022-09-26T11:59:43.174Z,4.30
2022-09-26T12:02:27.139Z,3.58
2022-09-26T12:05:18.475Z,4.00
2022-09-26T12:07:54.923Z,4.32
2022-09-26T12:10:34.682Z,4.15
2022-09-26T12:13:25.087Z,3.50
2022-09-26T12:16:01.381Z,3.53
2022-09-26T12:18:36.914Z,3.53
2022-09-26T12:21:18.434Z,4.40
2022-09-26T12:23:54.086Z,4.18
2022-09-26T12:26:31.660Z,4.32
2022-09-26T12:29:35.022Z,4.22
2022-09-26T12:32:22.732Z,4.43
2022-09-26T12:35:06.056Z,4.05
2022-09-26T12:37:54.135Z,3.72
2022-09-26T12:40:34.921Z,3.65
2022-09-26T12:43:38.699Z,4.10
2022-09-26T12:46:36.189Z,4.25
2022-09-26T12:49:17.048Z,4.70
2022-09-26T12:51:49.847Z,4.07
2022-09-26T12:54:34.859Z,3.90
2022-09-26T12:57:08.624Z,3.95
2022-09-26T13:00:02.626Z,4.10
2022-09-26T13:03:05.106Z,4.18
2022-09-26T13:05:57.301Z,4.30
2022-09-26T13:11:14.749Z,4.10
2022-09-26T13:14:18.645Z,4.80
2022-09-26T13:17:07.036Z,4.57
2022-09-26T13:19:39.778Z,4.38
2022-09-26T13:22:23.050Z,4.53
2022-09-26T13:24:56.679Z,5.10
2022-09-26T13:27:34.591Z,5.07
2022-09-26T13:30:08.559Z,4.55
2022-09-26T13:32:50.490Z,3.70
2022-09-26T13:35:22.481Z,4.43
2022-09-26T13:38:10.156Z,4.60
2022-09-26T13:40:46.954Z,4.70
2022-09-26T13:43:29.282Z,4.75
2022-09-26T13:46:06.819Z,4.55
2022-09-26T13:48:43.172Z,4.75
2022-09-26T13:51:19.682Z,5.47
2022-09-26T13:53:58.825Z,4.80
2022-09-26T13:56:59.984Z,4.93
2022-09-26T13:59:36.461Z,4.85
2022-09-26T14:02:29.028Z,5.30
2022-09-26T14:05:46.632Z,4.65
2022-09-26T14:08:50.306Z,4.40
2022-09-26T14:11:27.912Z,4.57
2022-09-26T14:14:38.897Z,4.30
2022-09-26T14:17:54.440Z,4.18
2022-09-26T14:20:28.021Z,4.18
2022-09-26T14:23:02.646Z,3.70
2022-09-26T14:28:32.884Z,4.15
2022-09-26T14:31:14.719Z,4.07
2022-09-26T14:33:47.653Z,4.15
2022-09-26T14:36:28.583Z,4.57
2022-09-26T14:38:58.241Z,3.72
2022-09-26T14:41:30.366Z,4.18
2022-09-26T14:44:04.514Z,4.65
2022-09-26T14:46:35.843Z,4.28
2022-09-26T14:49:08.848Z,4.32
2022-09-26T14:51:40.779Z,4.57
2022-09-26T14:54:22.630Z,4.32
2022-09-26T14:56:59.933Z,5.00
2022-09-26T14:59:43.628Z,5.38
2022-09-26T15:02:24.930Z,5.57
2022-09-26T15:05:13.117Z,6.30
2022-09-26T15:07:47.122Z,5.90
2022-09-26T15:10:26.575Z,5.00
2022-09-26T15:13:00.658Z,5.80
2022-09-26T15:15:38.587Z,6.00
2022-09-26T15:18:16.037Z,6.55
2022-09-26T15:20:51.912Z,6.30
2022-09-26T15:23:31.762Z,6.72
2022-09-26T15:26:03.461Z,6.20
2022-09-26T15:28:34.998Z,6.03
2022-09-26T15:31:28.185Z,5.85
2022-09-26T15:34:02.274Z,5.88
2022-09-26T15:36:35.585Z,5.78
2022-09-26T15:39:29.123Z,6.20
2022-09-26T15:42:20.580Z,5.97
2022-09-26T15:44:54.955Z,5.70
2022-09-26T15:47:27.931Z,6.15
2022-09-26T15:50:10.492Z,5.80
2022-09-26T15:52:44.760Z,5.95
2022-09-26T15:55:19.440Z,5.70
2022-09-26T15:57:52.490Z,5.43
2022-09-26T16:00:21.713Z,6.32
2022-09-26T16:02:50.851Z,6.53
2022-09-26T16:05:22.900Z,6.70
2022-09-26T16:07:54.844Z,6.97
2022-09-26T16:10:28.665Z,7.32
2022-09-26T16:12:58.610Z,6.95
2022-09-26T16:15:31.546Z,7.55
2022-09-26T16:18:00.867Z,7.78
2022-09-26T16:20:31.574Z,8.05
2022-09-26T16:23:05.854Z,7.88
2022-09-26T16:25:36.585Z,8.10
2022-09-26T16:28:44.808Z,7.28
2022-09-26T16:31:28.881Z,7.60
2022-09-26T16:34:01.353Z,8.43
2022-09-26T16:36:35.335Z,9.35
2022-09-26T16:39:08.870Z,9.80
2022-09-26T16:42:00.679Z,10.60
2022-09-26T16:44:35.900Z,11.15
2022-09-26T16:47:07.483Z,11.00
2022-09-26T16:49:46.936Z,11.15
2022-09-26T16:52:36.553Z,10.70
2022-09-26T16:55:08.142Z,10.02
2022-09-26T16:57:39.964Z,10.68
2022-09-26T17:00:34.684Z,10.05
2022-09-26T17:03:03.753Z,10.73
2022-09-26T17:05:32.903Z,10.52
2022-09-26T17:08:01.445Z,11.52
2022-09-26T17:10:32.481Z,10.57
2022-09-26T17:13:02.769Z,9.40
2022-09-26T17:15:32.946Z,9.48
2022-09-26T17:18:06.523Z,9.13
2022-09-26T17:20:35.158Z,9.60
2022-09-26T17:23:17.148Z,10.15
2022-09-26T17:25:57.544Z,13.88
2022-09-26T17:28:32.551Z,19.02
2022-09-26T17:31:06.704Z,25.25
2022-09-26T17:33:40.793Z,28.65
2022-09-26T17:36:18.566Z,27.17
2022-09-26T17:38:47.405Z,28.35
2022-09-26T17:41:18.247Z,25.73
2022-09-26T17:43:46.622Z,25.17
2022-09-26T17:46:17.124Z,25.10
2022-09-26T17:48:46.165Z,20.42
2022-09-26T17:51:15.098Z,18.70
2022-09-26T17:53:50.820Z,18.25
2022-09-26T17:56:21.187Z,17.98
2022-09-26T17:58:55.154Z,16.40
2022-09-26T18:01:26.437Z,14.85
2022-09-26T18:03:59.967Z,15.47
2022-09-26T18:06:33.303Z,15.07
2022-09-26T18:09:05.902Z,13.88
2022-09-26T18:11:37.410Z,13.77
2022-09-26T18:14:08.224Z,13.25
2022-09-26T18:16:37.136Z,12.02
2022-09-26T18:19:14.121Z,10.27
2022-09-26T18:21:42.734Z,10.52
2022-09-26T18:24:19.873Z,10.77
2022-09-26T18:26:57.139Z,10.35
2022-09-26T18:29:30.401Z,10.52
2022-09-26T18:32:01.156Z,9.95
2022-09-26T18:34:29.665Z,10.25
2022-09-26T18:37:00.445Z,10.02
2022-09-26T18:39:30.088Z,9.35
2022-09-26T18:42:05.220Z,9.52
2022-09-26T18:44:35.353Z,9.80
2022-09-26T18:47:06.167Z,9.93
2022-09-26T18:49:35.765Z,10.95
2022-09-26T18:52:05.107Z,12.15
2022-09-26T18:54:35.146Z,12.90
2022-09-26T18:57:22.414Z,12.50
2022-09-26T18:59:50.816Z,13.05
2022-09-26T19:02:24.455Z,13.77
2022-09-26T19:04:54.645Z,14.63
2022-09-26T19:07:23.734Z,14.60
2022-09-26T19:09:52.450Z,13.98
2022-09-26T19:12:22.420Z,13.10
2022-09-26T19:14:50.962Z,12.65
2022-09-26T19:17:19.324Z,12.10
2022-09-26T19:19:47.967Z,11.05
2022-09-26T19:22:18.484Z,11.52
2022-09-26T19:24:50.040Z,11.25
2022-09-26T19:27:24.004Z,10.02
2022-09-26T19:29:58.782Z,10.55
2022-09-26T19:32:33.575Z,9.90
2022-09-26T19:35:07.302Z,9.77
2022-09-26T19:37:35.898Z,9.77
2022-09-26T19:40:10.766Z,9.98
2022-09-26T19:42:40.675Z,10.00
2022-09-26T19:45:11.295Z,10.52
2022-09-26T19:47:42.474Z,9.65
2022-09-26T19:50:16.833Z,10.18
2022-09-26T19:52:45.514Z,9.45
2022-09-26T19:55:24.448Z,9.80
2022-09-26T19:57:54.939Z,9.20
2022-09-26T20:00:24.031Z,11.13
2022-09-26T20:02:53.217Z,10.45
2022-09-26T20:05:24.055Z,11.98
2022-09-26T20:07:53.071Z,11.32
2022-09-26T20:10:25.453Z,10.63
2022-09-26T20:12:55.319Z,9.55
2022-09-26T20:15:24.335Z,10.32
2022-09-26T20:17:55.225Z,10.93
2022-09-26T20:20:26.119Z,10.95
2022-09-26T20:22:56.584Z,11.73
2022-09-26T20:25:27.442Z,12.57
2022-09-26T20:27:58.665Z,12.23
2022-09-26T20:30:45.735Z,12.20
2022-09-26T20:33:15.081Z,11.75
2022-09-26T20:35:47.973Z,13.02
2022-09-26T20:38:26.050Z,13.43
2022-09-26T20:41:02.777Z,13.13
2022-09-26T20:43:36.126Z,12.73
2022-09-26T20:46:11.089Z,12.55
2022-09-26T20:48:42.998Z,12.45
2022-09-26T20:53:45.825Z,12.25
2022-09-26T20:56:20.980Z,12.40
2022-09-26T20:58:51.320Z,11.98
2022-09-26T21:01:21.393Z,12.02
2022-09-26T21:03:51.960Z,11.98
2022-09-26T21:06:22.661Z,11.73
2022-09-26T21:08:51.699Z,11.40
2022-09-26T21:11:22.228Z,11.75
2022-09-26T21:13:52.113Z,11.20
2022-09-26T21:16:22.512Z,11.18
2022-09-26T21:18:53.659Z,11.77
2022-09-26T21:21:25.176Z,11.85
2022-09-26T21:24:01.281Z,11.70
2022-09-26T21:26:31.386Z,10.52
2022-09-26T21:29:01.310Z,12.05
2022-09-26T21:31:32.134Z,12.00
2022-09-26T21:34:01.996Z,11.68
2022-09-26T21:36:36.732Z,10.60
2022-09-26T21:39:06.175Z,11.85
2022-09-26T21:41:35.188Z,11.65
2022-09-26T21:44:09.318Z,11.50
2022-09-26T21:46:37.954Z,10.90
2022-09-26T21:49:06.777Z,11.00
2022-09-26T21:51:36.696Z,10.60
2022-09-26T21:54:08.271Z,11.85
2022-09-26T21:56:40.589Z,11.57
2022-09-26T21:59:10.581Z,11.07
2022-09-26T22:01:39.644Z,11.70
2022-09-26T22:04:08.605Z,12.18
2022-09-26T22:06:37.032Z,11.82
2022-09-26T22:09:05.597Z,12.35
2022-09-26T22:11:34.233Z,11.93
2022-09-26T22:14:02.774Z,11.48
2022-09-26T22:16:32.545Z,13.02
2022-09-26T22:19:01.578Z,14.02
2022-09-26T22:21:30.077Z,13.70
2022-09-26T22:23:58.997Z,13.65
2022-09-26T22:26:27.870Z,13.85
2022-09-26T22:28:56.155Z,13.45
2022-09-26T22:31:24.547Z,13.15
2022-09-26T22:33:57.625Z,12.80
2022-09-26T22:36:26.597Z,13.75
2022-09-26T22:38:55.706Z,13.70
2022-09-26T22:41:24.080Z,12.90
2022-09-26T22:43:53.711Z,14.00
2022-09-26T22:46:22.391Z,13.77
2022-09-26T22:48:51.409Z,14.43
2022-09-26T22:51:21.232Z,14.13
2022-09-26T22:53:49.889Z,13.60
2022-09-26T22:56:18.423Z,13.40
2022-09-26T22:58:49.332Z,13.73
2022-09-26T23:01:19.511Z,13.95
2022-09-26T23:03:48.076Z,14.00
2022-09-26T23:06:16.369Z,13.90
2022-09-26T23:08:46.176Z,14.82
2022-09-26T23:11:15.960Z,13.05
2022-09-26T23:13:44.390Z,13.80
2022-09-26T23:16:14.663Z,14.45
2022-09-26T23:18:43.885Z,13.48
2022-09-26T23:21:14.140Z,13.55
2022-09-26T23:23:46.055Z,14.02
2022-09-26T23:26:17.756Z,13.10
2022-09-26T23:28:46.137Z,12.68
2022-09-26T23:31:14.702Z,12.82
2022-09-26T23:33:43.836Z,12.05
2022-09-26T23:36:12.602Z,12.60
2022-09-26T23:38:41.987Z,12.25
2022-09-26T23:41:12.796Z,11.90
2022-09-26T23:43:41.893Z,12.18
2022-09-26T23:46:11.150Z,11.90
2022-09-26T23:48:39.487Z,11.43
2022-09-26T23:51:08.177Z,11.38
2022-09-26T23:53:37.072Z,12.00
2022-09-26T23:56:06.809Z,12.00
2022-09-26T23:58:37.293Z,10.70
